sensor_id;sensor_type;location;lat;lon;timestamp;P1;durP1;ratioP1;P2;durP2;ratioP2
54805;SDS011;62866;55.776;37.496;2024-03-07T00:02:14;3.90;;;1.20;;
54805;SDS011;62866;55.776;37.496;2024-03-07T00:04:42;4.28;;;1.30;;
54805;SDS011;62866;55.776;37.496;2024-03-07T00:07:08;2.90;;;1.45;;
54805;SDS011;62866;55.776;37.496;2024-03-07T00:09:34;2.70;;;1.27;;
54805;SDS011;62866;55.776;37.496;2024-03-07T00:12:00;3.20;;;1.33;;
54805;SDS011;62866;55.776;37.496;2024-03-07T00:14:29;3.00;;;1.17;;
54805;SDS011;62866;55.776;37.496;2024-03-07T00:16:57;5.18;;;1.23;;
54805;SDS011;62866;55.776;37.496;2024-03-07T00:19:24;2.33;;;1.08;;
54805;SDS011;62866;55.776;37.496;2024-03-07T00:21:53;2.58;;;1.23;;
54805;SDS011;62866;55.776;37.496;2024-03-07T00:24:21;3.83;;;1.00;;
54805;SDS011;62866;55.776;37.496;2024-03-07T00:26:48;2.42;;;1.10;;
54805;SDS011;62866;55.776;37.496;2024-03-07T00:29:18;3.65;;;0.90;;
54805;SDS011;62866;55.776;37.496;2024-03-07T00:31:44;2.30;;;1.00;;
54805;SDS011;62866;55.776;37.496;2024-03-07T00:34:11;1.08;;;0.85;;
54805;SDS011;62866;55.776;37.496;2024-03-07T00:36:42;3.28;;;1.17;;
54805;SDS011;62866;55.776;37.496;2024-03-07T00:39:08;2.85;;;0.98;;
54805;SDS011;62866;55.776;37.496;2024-03-07T00:41:34;1.65;;;0.80;;
54805;SDS011;62866;55.776;37.496;2024-03-07T00:43:59;2.97;;;0.90;;
54805;SDS011;62866;55.776;37.496;2024-03-07T00:46:25;2.60;;;0.90;;
54805;SDS011;62866;55.776;37.496;2024-03-07T00:48:53;1.65;;;0.47;;
54805;SDS011;62866;55.776;37.496;2024-03-07T00:51:18;1.55;;;0.82;;
54805;SDS011;62866;55.776;37.496;2024-03-07T00:53:44;4.05;;;1.00;;
54805;SDS011;62866;55.776;37.496;2024-03-07T00:56:09;2.25;;;0.93;;
54805;SDS011;62866;55.776;37.496;2024-03-07T00:58:35;2.95;;;0.93;;
54805;SDS011;62866;55.776;37.496;2024-03-07T01:01:00;1.02;;;0.80;;
54805;SDS011;62866;55.776;37.496;2024-03-07T01:03:26;3.38;;;0.90;;
54805;SDS011;62866;55.776;37.496;2024-03-07T01:05:52;2.17;;;0.80;;
54805;SDS011;62866;55.776;37.496;2024-03-07T01:08:17;1.88;;;0.70;;
54805;SDS011;62866;55.776;37.496;2024-03-07T01:10:43;2.05;;;0.80;;
54805;SDS011;62866;55.776;37.496;2024-03-07T01:13:08;2.15;;;0.70;;
54805;SDS011;62866;55.776;37.496;2024-03-07T01:15:40;1.10;;;0.90;;
54805;SDS011;62866;55.776;37.496;2024-03-07T01:18:06;4.47;;;1.17;;
54805;SDS011;62866;55.776;37.496;2024-03-07T01:20:32;1.23;;;0.90;;
54805;SDS011;62866;55.776;37.496;2024-03-07T01:22:57;1.15;;;0.93;;
54805;SDS011;62866;55.776;37.496;2024-03-07T01:25:23;1.30;;;0.77;;
54805;SDS011;62866;55.776;37.496;2024-03-07T01:27:48;2.15;;;1.13;;
54805;SDS011;62866;55.776;37.496;2024-03-07T01:30:16;2.88;;;0.73;;
54805;SDS011;62866;55.776;37.496;2024-03-07T01:32:41;1.30;;;0.75;;
54805;SDS011;62866;55.776;37.496;2024-03-07T01:35:08;1.30;;;0.82;;
54805;SDS011;62866;55.776;37.496;2024-03-07T01:37:33;1.35;;;0.77;;
54805;SDS011;62866;55.776;37.496;2024-03-07T01:39:59;2.72;;;1.13;;
54805;SDS011;62866;55.776;37.496;2024-03-07T01:42:24;1.80;;;0.73;;
54805;SDS011;62866;55.776;37.496;2024-03-07T01:44:50;2.00;;;0.88;;
54805;SDS011;62866;55.776;37.496;2024-03-07T01:47:17;1.75;;;0.75;;
54805;SDS011;62866;55.776;37.496;2024-03-07T01:49:42;2.00;;;0.85;;
54805;SDS011;62866;55.776;37.496;2024-03-07T01:52:08;2.67;;;0.88;;
54805;SDS011;62866;55.776;37.496;2024-03-07T01:54:36;3.42;;;1.00;;
54805;SDS011;62866;55.776;37.496;2024-03-07T01:57:02;4.82;;;1.20;;
54805;SDS011;62866;55.776;37.496;2024-03-07T01:59:30;1.38;;;0.80;;
54805;SDS011;62866;55.776;37.496;2024-03-07T02:01:57;6.78;;;1.17;;
54805;SDS011;62866;55.776;37.496;2024-03-07T02:04:23;1.48;;;0.75;;
54805;SDS011;62866;55.776;37.496;2024-03-07T02:06:49;1.70;;;0.98;;
54805;SDS011;62866;55.776;37.496;2024-03-07T02:09:16;3.22;;;1.15;;
54805;SDS011;62866;55.776;37.496;2024-03-07T02:11:42;3.15;;;0.70;;
54805;SDS011;62866;55.776;37.496;2024-03-07T02:14:08;1.58;;;0.85;;
54805;SDS011;62866;55.776;37.496;2024-03-07T02:16:33;1.67;;;0.90;;
54805;SDS011;62866;55.776;37.496;2024-03-07T02:18:58;2.53;;;0.90;;
54805;SDS011;62866;55.776;37.496;2024-03-07T02:21:25;2.40;;;1.02;;
54805;SDS011;62866;55.776;37.496;2024-03-07T02:23:50;1.98;;;1.05;;
54805;SDS011;62866;55.776;37.496;2024-03-07T02:26:16;2.25;;;0.82;;
54805;SDS011;62866;55.776;37.496;2024-03-07T02:28:42;1.13;;;0.82;;
54805;SDS011;62866;55.776;37.496;2024-03-07T02:31:07;1.20;;;0.80;;
54805;SDS011;62866;55.776;37.496;2024-03-07T02:33:33;1.60;;;1.02;;
54805;SDS011;62866;55.776;37.496;2024-03-07T02:35:58;2.70;;;1.15;;
54805;SDS011;62866;55.776;37.496;2024-03-07T02:38:24;3.25;;;1.10;;
54805;SDS011;62866;55.776;37.496;2024-03-07T02:40:50;1.63;;;0.82;;
54805;SDS011;62866;55.776;37.496;2024-03-07T02:43:15;2.28;;;1.52;;
54805;SDS011;62866;55.776;37.496;2024-03-07T02:45:41;3.72;;;0.88;;
54805;SDS011;62866;55.776;37.496;2024-03-07T02:48:06;1.45;;;0.98;;
54805;SDS011;62866;55.776;37.496;2024-03-07T02:50:37;2.80;;;1.35;;
54805;SDS011;62866;55.776;37.496;2024-03-07T02:53:03;2.55;;;1.30;;
54805;SDS011;62866;55.776;37.496;2024-03-07T02:55:29;2.58;;;0.98;;
54805;SDS011;62866;55.776;37.496;2024-03-07T02:57:55;2.10;;;0.70;;
54805;SDS011;62866;55.776;37.496;2024-03-07T03:00:24;2.95;;;1.10;;
54805;SDS011;62866;55.776;37.496;2024-03-07T03:02:55;4.45;;;1.63;;
54805;SDS011;62866;55.776;37.496;2024-03-07T03:05:21;2.30;;;1.17;;
54805;SDS011;62866;55.776;37.496;2024-03-07T03:07:47;5.15;;;1.20;;
54805;SDS011;62866;55.776;37.496;2024-03-07T03:10:25;4.20;;;1.30;;
54805;SDS011;62866;55.776;37.496;2024-03-07T03:12:54;2.25;;;1.13;;
54805;SDS011;62866;55.776;37.496;2024-03-07T03:15:21;3.13;;;1.40;;
54805;SDS011;62866;55.776;37.496;2024-03-07T03:17:47;1.92;;;1.33;;
54805;SDS011;62866;55.776;37.496;2024-03-07T03:20:13;4.30;;;1.25;;
54805;SDS011;62866;55.776;37.496;2024-03-07T03:22:54;1.50;;;1.00;;
54805;SDS011;62866;55.776;37.496;2024-03-07T03:25:20;2.25;;;1.20;;
54805;SDS011;62866;55.776;37.496;2024-03-07T03:27:46;3.85;;;0.95;;
54805;SDS011;62866;55.776;37.496;2024-03-07T03:30:13;1.35;;;0.77;;
54805;SDS011;62866;55.776;37.496;2024-03-07T03:32:42;1.27;;;0.82;;
54805;SDS011;62866;55.776;37.496;2024-03-07T03:35:07;5.90;;;1.17;;
54805;SDS011;62866;55.776;37.496;2024-03-07T03:37:47;1.63;;;1.10;;
54805;SDS011;62866;55.776;37.496;2024-03-07T03:40:12;4.85;;;1.10;;
54805;SDS011;62866;55.776;37.496;2024-03-07T03:42:38;2.13;;;0.70;;
54805;SDS011;62866;55.776;37.496;2024-03-07T03:45:05;1.55;;;0.88;;
54805;SDS011;62866;55.776;37.496;2024-03-07T03:47:33;8.98;;;1.63;;
54805;SDS011;62866;55.776;37.496;2024-03-07T03:50:01;1.83;;;0.95;;
54805;SDS011;62866;55.776;37.496;2024-03-07T03:52:30;2.50;;;0.90;;
54805;SDS011;62866;55.776;37.496;2024-03-07T03:54:56;4.70;;;1.70;;
54805;SDS011;62866;55.776;37.496;2024-03-07T03:57:22;3.83;;;1.20;;
54805;SDS011;62866;55.776;37.496;2024-03-07T03:59:48;2.80;;;1.27;;
54805;SDS011;62866;55.776;37.496;2024-03-07T04:02:13;2.55;;;1.02;;
54805;SDS011;62866;55.776;37.496;2024-03-07T04:04:42;4.90;;;1.80;;
54805;SDS011;62866;55.776;37.496;2024-03-07T04:07:08;5.38;;;1.55;;
54805;SDS011;62866;55.776;37.496;2024-03-07T04:09:33;5.05;;;1.30;;
54805;SDS011;62866;55.776;37.496;2024-03-07T04:11:59;4.00;;;1.45;;
54805;SDS011;62866;55.776;37.496;2024-03-07T04:14:25;3.75;;;1.55;;
54805;SDS011;62866;55.776;37.496;2024-03-07T04:16:51;5.32;;;1.60;;
54805;SDS011;62866;55.776;37.496;2024-03-07T04:19:17;5.75;;;1.33;;
54805;SDS011;62866;55.776;37.496;2024-03-07T04:21:45;4.68;;;1.48;;
54805;SDS011;62866;55.776;37.496;2024-03-07T04:24:11;4.00;;;1.30;;
54805;SDS011;62866;55.776;37.496;2024-03-07T04:26:37;12.88;;;1.50;;
54805;SDS011;62866;55.776;37.496;2024-03-07T04:29:03;2.88;;;1.23;;
54805;SDS011;62866;55.776;37.496;2024-03-07T04:31:28;5.22;;;1.85;;
54805;SDS011;62866;55.776;37.496;2024-03-07T04:33:54;6.90;;;1.70;;
54805;SDS011;62866;55.776;37.496;2024-03-07T04:36:19;4.57;;;1.35;;
54805;SDS011;62866;55.776;37.496;2024-03-07T04:38:45;8.25;;;1.50;;
54805;SDS011;62866;55.776;37.496;2024-03-07T04:41:11;3.92;;;1.75;;
54805;SDS011;62866;55.776;37.496;2024-03-07T04:43:36;2.25;;;0.90;;
54805;SDS011;62866;55.776;37.496;2024-03-07T04:46:02;5.05;;;1.40;;
54805;SDS011;62866;55.776;37.496;2024-03-07T04:48:31;2.72;;;1.40;;
54805;SDS011;62866;55.776;37.496;2024-03-07T04:50:57;4.55;;;1.67;;
54805;SDS011;62866;55.776;37.496;2024-03-07T04:53:23;2.78;;;1.55;;
54805;SDS011;62866;55.776;37.496;2024-03-07T04:55:48;1.95;;;1.50;;
54805;SDS011;62866;55.776;37.496;2024-03-07T04:58:14;4.07;;;1.83;;
54805;SDS011;62866;55.776;37.496;2024-03-07T05:00:39;3.97;;;1.40;;
54805;SDS011;62866;55.776;37.496;2024-03-07T05:03:05;3.75;;;1.23;;
54805;SDS011;62866;55.776;37.496;2024-03-07T05:05:31;2.20;;;0.85;;
54805;SDS011;62866;55.776;37.496;2024-03-07T05:07:56;2.25;;;1.15;;
54805;SDS011;62866;55.776;37.496;2024-03-07T05:10:22;3.47;;;1.50;;
54805;SDS011;62866;55.776;37.496;2024-03-07T05:12:48;2.50;;;1.30;;
54805;SDS011;62866;55.776;37.496;2024-03-07T05:15:13;4.75;;;1.48;;
54805;SDS011;62866;55.776;37.496;2024-03-07T05:17:39;2.92;;;1.23;;
54805;SDS011;62866;55.776;37.496;2024-03-07T05:20:07;5.18;;;1.52;;
54805;SDS011;62866;55.776;37.496;2024-03-07T05:22:35;2.30;;;1.25;;
54805;SDS011;62866;55.776;37.496;2024-03-07T05:25:05;6.30;;;1.70;;
54805;SDS011;62866;55.776;37.496;2024-03-07T05:27:32;2.45;;;1.05;;
54805;SDS011;62866;55.776;37.496;2024-03-07T05:29:58;4.68;;;1.38;;
54805;SDS011;62866;55.776;37.496;2024-03-07T05:32:25;4.80;;;1.63;;
54805;SDS011;62866;55.776;37.496;2024-03-07T05:34:51;3.58;;;1.92;;
54805;SDS011;62866;55.776;37.496;2024-03-07T05:37:21;3.85;;;1.73;;
54805;SDS011;62866;55.776;37.496;2024-03-07T05:39:47;5.25;;;1.90;;
54805;SDS011;62866;55.776;37.496;2024-03-07T05:42:13;6.22;;;2.90;;
54805;SDS011;62866;55.776;37.496;2024-03-07T05:44:40;5.95;;;2.15;;
54805;SDS011;62866;55.776;37.496;2024-03-07T05:47:08;8.23;;;2.67;;
54805;SDS011;62866;55.776;37.496;2024-03-07T05:49:34;8.43;;;3.05;;
54805;SDS011;62866;55.776;37.496;2024-03-07T05:52:02;9.57;;;2.63;;
54805;SDS011;62866;55.776;37.496;2024-03-07T05:54:28;9.32;;;2.75;;
54805;SDS011;62866;55.776;37.496;2024-03-07T05:56:54;6.55;;;2.63;;
54805;SDS011;62866;55.776;37.496;2024-03-07T05:59:20;8.07;;;3.00;;
54805;SDS011;62866;55.776;37.496;2024-03-07T06:01:46;12.02;;;3.08;;
54805;SDS011;62866;55.776;37.496;2024-03-07T06:04:12;6.68;;;3.15;;
54805;SDS011;62866;55.776;37.496;2024-03-07T06:06:37;9.13;;;3.22;;
54805;SDS011;62866;55.776;37.496;2024-03-07T06:09:04;4.45;;;2.40;;
54805;SDS011;62866;55.776;37.496;2024-03-07T06:11:37;5.13;;;2.15;;
54805;SDS011;62866;55.776;37.496;2024-03-07T06:14:03;8.70;;;3.08;;
54805;SDS011;62866;55.776;37.496;2024-03-07T06:16:30;2.70;;;2.05;;
54805;SDS011;62866;55.776;37.496;2024-03-07T06:19:01;8.05;;;2.35;;
54805;SDS011;62866;55.776;37.496;2024-03-07T06:21:27;5.75;;;2.78;;
54805;SDS011;62866;55.776;37.496;2024-03-07T06:23:54;6.35;;;2.10;;
54805;SDS011;62866;55.776;37.496;2024-03-07T06:26:27;5.13;;;1.92;;
54805;SDS011;62866;55.776;37.496;2024-03-07T06:29:05;3.90;;;1.88;;
54805;SDS011;62866;55.776;37.496;2024-03-07T06:31:31;9.95;;;2.55;;
54805;SDS011;62866;55.776;37.496;2024-03-07T06:33:58;6.28;;;2.80;;
54805;SDS011;62866;55.776;37.496;2024-03-07T06:36:24;7.60;;;2.58;;
54805;SDS011;62866;55.776;37.496;2024-03-07T06:38:53;11.27;;;2.80;;
54805;SDS011;62866;55.776;37.496;2024-03-07T06:41:19;5.07;;;2.53;;
54805;SDS011;62866;55.776;37.496;2024-03-07T06:43:44;9.63;;;2.35;;
54805;SDS011;62866;55.776;37.496;2024-03-07T06:46:10;7.60;;;2.67;;
54805;SDS011;62866;55.776;37.496;2024-03-07T06:48:37;5.53;;;2.50;;
54805;SDS011;62866;55.776;37.496;2024-03-07T06:51:05;5.57;;;2.78;;
54805;SDS011;62866;55.776;37.496;2024-03-07T06:53:31;9.40;;;4.15;;
54805;SDS011;62866;55.776;37.496;2024-03-07T06:55:57;8.88;;;2.70;;
54805;SDS011;62866;55.776;37.496;2024-03-07T06:58:22;9.13;;;2.85;;
54805;SDS011;62866;55.776;37.496;2024-03-07T07:00:48;6.93;;;3.63;;
54805;SDS011;62866;55.776;37.496;2024-03-07T07:03:17;5.35;;;3.03;;
54805;SDS011;62866;55.776;37.496;2024-03-07T07:05:44;9.65;;;2.88;;
54805;SDS011;62866;55.776;37.496;2024-03-07T07:08:10;7.25;;;3.08;;
54805;SDS011;62866;55.776;37.496;2024-03-07T07:10:36;9.15;;;3.30;;
54805;SDS011;62866;55.776;37.496;2024-03-07T07:13:02;6.72;;;3.22;;
54805;SDS011;62866;55.776;37.496;2024-03-07T07:15:29;8.52;;;3.67;;
54805;SDS011;62866;55.776;37.496;2024-03-07T07:17:55;6.20;;;2.75;;
54805;SDS011;62866;55.776;37.496;2024-03-07T07:20:20;8.35;;;2.72;;
54805;SDS011;62866;55.776;37.496;2024-03-07T07:22:49;6.47;;;3.45;;
54805;SDS011;62866;55.776;37.496;2024-03-07T07:25:15;8.15;;;3.10;;
54805;SDS011;62866;55.776;37.496;2024-03-07T07:27:44;9.57;;;3.85;;
54805;SDS011;62866;55.776;37.496;2024-03-07T07:30:12;6.00;;;2.92;;
54805;SDS011;62866;55.776;37.496;2024-03-07T07:32:40;5.50;;;3.55;;
54805;SDS011;62866;55.776;37.496;2024-03-07T07:35:06;6.03;;;3.17;;
54805;SDS011;62866;55.776;37.496;2024-03-07T07:37:50;14.60;;;3.20;;
54805;SDS011;62866;55.776;37.496;2024-03-07T07:40:19;12.02;;;3.28;;
54805;SDS011;62866;55.776;37.496;2024-03-07T07:42:48;7.25;;;3.55;;
54805;SDS011;62866;55.776;37.496;2024-03-07T07:45:17;5.25;;;2.72;;
54805;SDS011;62866;55.776;37.496;2024-03-07T07:47:44;10.07;;;3.40;;
54805;SDS011;62866;55.776;37.496;2024-03-07T07:50:17;7.40;;;2.83;;
54805;SDS011;62866;55.776;37.496;2024-03-07T07:52:45;4.32;;;2.45;;
54805;SDS011;62866;55.776;37.496;2024-03-07T07:55:21;5.00;;;2.80;;
54805;SDS011;62866;55.776;37.496;2024-03-07T07:57:54;4.00;;;2.45;;
54805;SDS011;62866;55.776;37.496;2024-03-07T08:00:22;7.68;;;3.00;;
54805;SDS011;62866;55.776;37.496;2024-03-07T08:02:49;7.15;;;2.50;;
54805;SDS011;62866;55.776;37.496;2024-03-07T08:05:23;5.85;;;2.60;;
54805;SDS011;62866;55.776;37.496;2024-03-07T08:07:50;4.63;;;3.22;;
54805;SDS011;62866;55.776;37.496;2024-03-07T08:10:20;10.20;;;3.08;;
54805;SDS011;62866;55.776;37.496;2024-03-07T08:12:48;7.95;;;2.67;;
54805;SDS011;62866;55.776;37.496;2024-03-07T08:15:14;4.88;;;2.03;;
54805;SDS011;62866;55.776;37.496;2024-03-07T08:17:43;7.22;;;2.30;;
54805;SDS011;62866;55.776;37.496;2024-03-07T08:20:10;5.65;;;2.60;;
54805;SDS011;62866;55.776;37.496;2024-03-07T08:22:38;6.03;;;2.50;;
54805;SDS011;62866;55.776;37.496;2024-03-07T08:25:06;3.67;;;2.30;;
54805;SDS011;62866;55.776;37.496;2024-03-07T08:27:39;7.47;;;2.65;;
54805;SDS011;62866;55.776;37.496;2024-03-07T08:30:07;5.28;;;2.13;;
54805;SDS011;62866;55.776;37.496;2024-03-07T08:32:38;4.60;;;2.50;;
54805;SDS011;62866;55.776;37.496;2024-03-07T08:35:07;7.68;;;3.20;;
54805;SDS011;62866;55.776;37.496;2024-03-07T08:37:40;4.38;;;2.45;;
54805;SDS011;62866;55.776;37.496;2024-03-07T08:40:07;6.93;;;2.40;;
54805;SDS011;62866;55.776;37.496;2024-03-07T08:42:35;4.95;;;2.25;;
54805;SDS011;62866;55.776;37.496;2024-03-07T08:45:02;5.28;;;2.30;;
54805;SDS011;62866;55.776;37.496;2024-03-07T08:47:30;4.95;;;3.13;;
54805;SDS011;62866;55.776;37.496;2024-03-07T08:49:56;5.65;;;2.97;;
54805;SDS011;62866;55.776;37.496;2024-03-07T08:52:21;5.32;;;2.63;;
54805;SDS011;62866;55.776;37.496;2024-03-07T08:54:47;3.08;;;1.77;;
54805;SDS011;62866;55.776;37.496;2024-03-07T08:57:13;4.55;;;2.20;;
54805;SDS011;62866;55.776;37.496;2024-03-07T08:59:42;3.75;;;1.80;;
54805;SDS011;62866;55.776;37.496;2024-03-07T09:02:08;5.60;;;1.90;;
54805;SDS011;62866;55.776;37.496;2024-03-07T09:04:35;4.85;;;1.80;;
54805;SDS011;62866;55.776;37.496;2024-03-07T09:07:01;5.03;;;1.75;;
54805;SDS011;62866;55.776;37.496;2024-03-07T09:09:27;2.25;;;1.30;;
54805;SDS011;62866;55.776;37.496;2024-03-07T09:11:52;5.80;;;1.60;;
54805;SDS011;62866;55.776;37.496;2024-03-07T09:14:17;4.57;;;1.42;;
54805;SDS011;62866;55.776;37.496;2024-03-07T09:16:43;6.30;;;1.95;;
54805;SDS011;62866;55.776;37.496;2024-03-07T09:19:09;3.67;;;2.08;;
54805;SDS011;62866;55.776;37.496;2024-03-07T09:21:39;8.88;;;2.40;;
54805;SDS011;62866;55.776;37.496;2024-03-07T09:24:05;6.70;;;1.80;;
54805;SDS011;62866;55.776;37.496;2024-03-07T09:26:32;3.08;;;1.80;;
54805;SDS011;62866;55.776;37.496;2024-03-07T09:28:59;1.80;;;1.35;;
54805;SDS011;62866;55.776;37.496;2024-03-07T09:31:30;4.00;;;1.65;;
54805;SDS011;62866;55.776;37.496;2024-03-07T09:33:59;4.50;;;1.60;;
54805;SDS011;62866;55.776;37.496;2024-03-07T09:36:25;3.47;;;1.95;;
54805;SDS011;62866;55.776;37.496;2024-03-07T09:38:51;4.20;;;1.30;;
54805;SDS011;62866;55.776;37.496;2024-03-07T09:41:16;3.90;;;1.33;;
54805;SDS011;62866;55.776;37.496;2024-03-07T09:43:45;5.00;;;1.50;;
54805;SDS011;62866;55.776;37.496;2024-03-07T09:46:13;2.28;;;1.20;;
54805;SDS011;62866;55.776;37.496;2024-03-07T09:48:39;3.28;;;1.10;;
54805;SDS011;62866;55.776;37.496;2024-03-07T09:51:06;2.20;;;1.48;;
54805;SDS011;62866;55.776;37.496;2024-03-07T09:53:36;3.35;;;1.30;;
54805;SDS011;62866;55.776;37.496;2024-03-07T09:56:03;2.83;;;1.17;;
54805;SDS011;62866;55.776;37.496;2024-03-07T09:58:31;2.00;;;1.38;;
54805;SDS011;62866;55.776;37.496;2024-03-07T10:00:59;5.40;;;1.77;;
54805;SDS011;62866;55.776;37.496;2024-03-07T10:03:28;1.38;;;1.02;;
54805;SDS011;62866;55.776;37.496;2024-03-07T10:05:54;4.03;;;1.38;;
54805;SDS011;62866;55.776;37.496;2024-03-07T10:08:21;6.15;;;1.77;;
54805;SDS011;62866;55.776;37.496;2024-03-07T10:10:49;2.50;;;1.50;;
54805;SDS011;62866;55.776;37.496;2024-03-07T10:13:15;2.40;;;1.35;;
54805;SDS011;62866;55.776;37.496;2024-03-07T10:15:42;3.70;;;1.00;;
54805;SDS011;62866;55.776;37.496;2024-03-07T10:18:08;3.20;;;1.45;;
54805;SDS011;62866;55.776;37.496;2024-03-07T10:20:39;4.50;;;1.40;;
54805;SDS011;62866;55.776;37.496;2024-03-07T10:23:04;4.72;;;1.27;;
54805;SDS011;62866;55.776;37.496;2024-03-07T10:25:33;3.00;;;1.27;;
54805;SDS011;62866;55.776;37.496;2024-03-07T10:27:58;3.53;;;1.38;;
54805;SDS011;62866;55.776;37.496;2024-03-07T10:30:25;5.72;;;1.42;;
54805;SDS011;62866;55.776;37.496;2024-03-07T10:32:56;4.13;;;1.33;;
54805;SDS011;62866;55.776;37.496;2024-03-07T10:35:22;5.22;;;1.48;;
54805;SDS011;62866;55.776;37.496;2024-03-07T10:37:54;2.95;;;1.42;;
54805;SDS011;62866;55.776;37.496;2024-03-07T10:40:21;1.88;;;1.40;;
54805;SDS011;62866;55.776;37.496;2024-03-07T10:42:47;3.80;;;1.33;;
54805;SDS011;62866;55.776;37.496;2024-03-07T10:45:19;2.92;;;1.38;;
54805;SDS011;62866;55.776;37.496;2024-03-07T10:47:55;5.10;;;1.40;;
54805;SDS011;62866;55.776;37.496;2024-03-07T10:53:45;8.80;;;2.10;;
54805;SDS011;62866;55.776;37.496;2024-03-07T11:01:48;2.35;;;1.50;;
54805;SDS011;62866;55.776;37.496;2024-03-07T11:04:15;4.70;;;1.25;;
54805;SDS011;62866;55.776;37.496;2024-03-07T11:06:43;2.65;;;1.35;;
54805;SDS011;62866;55.776;37.496;2024-03-07T11:09:10;3.95;;;1.70;;
54805;SDS011;62866;55.776;37.496;2024-03-07T11:11:39;3.25;;;1.38;;
54805;SDS011;62866;55.776;37.496;2024-03-07T11:14:06;2.45;;;1.45;;
54805;SDS011;62866;55.776;37.496;2024-03-07T11:16:36;3.25;;;1.48;;
54805;SDS011;62866;55.776;37.496;2024-03-07T11:21:47;3.28;;;1.58;;
54805;SDS011;62866;55.776;37.496;2024-03-07T11:27:09;3.30;;;1.50;;
54805;SDS011;62866;55.776;37.496;2024-03-07T11:29:48;4.03;;;1.73;;
54805;SDS011;62866;55.776;37.496;2024-03-07T11:32:18;4.18;;;1.60;;
54805;SDS011;62866;55.776;37.496;2024-03-07T11:34:47;2.58;;;1.75;;
54805;SDS011;62866;55.776;37.496;2024-03-07T11:40:06;4.47;;;1.88;;
54805;SDS011;62866;55.776;37.496;2024-03-07T11:42:33;2.22;;;1.50;;
54805;SDS011;62866;55.776;37.496;2024-03-07T11:45:01;3.03;;;1.40;;
54805;SDS011;62866;55.776;37.496;2024-03-07T11:47:37;4.53;;;1.48;;
54805;SDS011;62866;55.776;37.496;2024-03-07T11:50:04;4.07;;;1.50;;
54805;SDS011;62866;55.776;37.496;2024-03-07T11:52:36;3.15;;;1.35;;
54805;SDS011;62866;55.776;37.496;2024-03-07T11:55:03;1.73;;;1.20;;
54805;SDS011;62866;55.776;37.496;2024-03-07T11:57:30;3.85;;;1.67;;
54805;SDS011;62866;55.776;37.496;2024-03-07T11:59:59;5.28;;;1.60;;
54805;SDS011;62866;55.776;37.496;2024-03-07T12:02:37;2.63;;;1.55;;
54805;SDS011;62866;55.776;37.496;2024-03-07T12:05:04;5.22;;;1.33;;
54805;SDS011;62866;55.776;37.496;2024-03-07T12:07:31;7.32;;;1.48;;
54805;SDS011;62866;55.776;37.496;2024-03-07T12:09:58;4.20;;;1.73;;
54805;SDS011;62866;55.776;37.496;2024-03-07T12:12:25;5.40;;;1.50;;
54805;SDS011;62866;55.776;37.496;2024-03-07T12:14:53;2.60;;;1.60;;
54805;SDS011;62866;55.776;37.496;2024-03-07T12:17:19;2.20;;;1.50;;
54805;SDS011;62866;55.776;37.496;2024-03-07T12:19:46;5.00;;;1.73;;
54805;SDS011;62866;55.776;37.496;2024-03-07T12:22:12;3.17;;;1.73;;
54805;SDS011;62866;55.776;37.496;2024-03-07T12:24:39;2.88;;;1.52;;
54805;SDS011;62866;55.776;37.496;2024-03-07T12:27:11;2.65;;;1.50;;
54805;SDS011;62866;55.776;37.496;2024-03-07T12:29:40;2.33;;;1.33;;
54805;SDS011;62866;55.776;37.496;2024-03-07T12:32:13;2.63;;;1.50;;
54805;SDS011;62866;55.776;37.496;2024-03-07T12:34:39;2.95;;;1.77;;
54805;SDS011;62866;55.776;37.496;2024-03-07T12:37:10;2.13;;;1.00;;
54805;SDS011;62866;55.776;37.496;2024-03-07T12:39:36;3.85;;;1.70;;
54805;SDS011;62866;55.776;37.496;2024-03-07T12:42:11;3.45;;;1.45;;
54805;SDS011;62866;55.776;37.496;2024-03-07T12:44:42;3.22;;;1.48;;
54805;SDS011;62866;55.776;37.496;2024-03-07T12:47:15;5.55;;;1.65;;
54805;SDS011;62866;55.776;37.496;2024-03-07T12:49:44;3.20;;;1.35;;
54805;SDS011;62866;55.776;37.496;2024-03-07T12:52:10;4.15;;;1.90;;
54805;SDS011;62866;55.776;37.496;2024-03-07T12:54:40;4.65;;;1.45;;
54805;SDS011;62866;55.776;37.496;2024-03-07T12:57:06;4.32;;;1.65;;
54805;SDS011;62866;55.776;37.496;2024-03-07T12:59:34;2.22;;;0.98;;
54805;SDS011;62866;55.776;37.496;2024-03-07T13:02:05;6.45;;;1.65;;
54805;SDS011;62866;55.776;37.496;2024-03-07T13:04:32;2.15;;;1.17;;
54805;SDS011;62866;55.776;37.496;2024-03-07T13:06:58;2.80;;;1.10;;
54805;SDS011;62866;55.776;37.496;2024-03-07T13:09:27;5.75;;;1.30;;
54805;SDS011;62866;55.776;37.496;2024-03-07T13:11:53;1.08;;;0.70;;
54805;SDS011;62866;55.776;37.496;2024-03-07T13:14:19;2.47;;;1.20;;
54805;SDS011;62866;55.776;37.496;2024-03-07T13:16:45;3.30;;;1.40;;
54805;SDS011;62866;55.776;37.496;2024-03-07T13:19:10;2.92;;;1.48;;
54805;SDS011;62866;55.776;37.496;2024-03-07T13:21:37;2.13;;;1.30;;
54805;SDS011;62866;55.776;37.496;2024-03-07T13:24:05;2.83;;;1.52;;
54805;SDS011;62866;55.776;37.496;2024-03-07T13:26:31;2.40;;;1.42;;
54805;SDS011;62866;55.776;37.496;2024-03-07T13:28:57;3.08;;;1.02;;
54805;SDS011;62866;55.776;37.496;2024-03-07T13:31:27;1.77;;;1.10;;
54805;SDS011;62866;55.776;37.496;2024-03-07T13:33:54;3.42;;;1.25;;
54805;SDS011;62866;55.776;37.496;2024-03-07T13:36:20;2.78;;;1.13;;
54805;SDS011;62866;55.776;37.496;2024-03-07T13:38:50;2.45;;;1.00;;
54805;SDS011;62866;55.776;37.496;2024-03-07T13:41:18;6.90;;;1.30;;
54805;SDS011;62866;55.776;37.496;2024-03-07T13:43:44;3.00;;;1.40;;
54805;SDS011;62866;55.776;37.496;2024-03-07T13:46:10;2.10;;;1.10;;
54805;SDS011;62866;55.776;37.496;2024-03-07T13:48:37;1.95;;;1.17;;
54805;SDS011;62866;55.776;37.496;2024-03-07T13:51:03;3.03;;;1.33;;
54805;SDS011;62866;55.776;37.496;2024-03-07T13:53:33;2.00;;;1.17;;
54805;SDS011;62866;55.776;37.496;2024-03-07T14:06:48;3.15;;;1.50;;
54805;SDS011;62866;55.776;37.496;2024-03-07T14:32:45;1.70;;;1.20;;
54805;SDS011;62866;55.776;37.496;2024-03-07T14:35:17;3.42;;;1.05;;
54805;SDS011;62866;55.776;37.496;2024-03-07T14:40:53;2.30;;;1.13;;
54805;SDS011;62866;55.776;37.496;2024-03-07T14:43:20;2.30;;;1.45;;
54805;SDS011;62866;55.776;37.496;2024-03-07T14:45:46;4.45;;;1.33;;
54805;SDS011;62866;55.776;37.496;2024-03-07T14:48:12;2.28;;;1.13;;
54805;SDS011;62866;55.776;37.496;2024-03-07T14:50:41;2.80;;;1.13;;
54805;SDS011;62866;55.776;37.496;2024-03-07T14:53:07;3.00;;;1.63;;
54805;SDS011;62866;55.776;37.496;2024-03-07T14:55:33;2.08;;;0.98;;
54805;SDS011;62866;55.776;37.496;2024-03-07T14:58:01;1.65;;;0.75;;
54805;SDS011;62866;55.776;37.496;2024-03-07T15:00:27;2.85;;;1.35;;
54805;SDS011;62866;55.776;37.496;2024-03-07T15:02:54;3.03;;;1.35;;
54805;SDS011;62866;55.776;37.496;2024-03-07T15:05:23;4.03;;;1.65;;
54805;SDS011;62866;55.776;37.496;2024-03-07T15:07:50;1.55;;;0.90;;
54805;SDS011;62866;55.776;37.496;2024-03-07T15:10:24;2.53;;;0.80;;
54805;SDS011;62866;55.776;37.496;2024-03-07T15:12:56;2.30;;;0.98;;
54805;SDS011;62866;55.776;37.496;2024-03-07T15:15:21;2.33;;;1.33;;
54805;SDS011;62866;55.776;37.496;2024-03-07T15:17:49;1.67;;;1.00;;
54805;SDS011;62866;55.776;37.496;2024-03-07T15:20:16;2.28;;;1.65;;
54805;SDS011;62866;55.776;37.496;2024-03-07T15:22:48;2.15;;;1.40;;
54805;SDS011;62866;55.776;37.496;2024-03-07T15:25:28;2.55;;;1.30;;
54805;SDS011;62866;55.776;37.496;2024-03-07T15:27:55;2.42;;;1.10;;
54805;SDS011;62866;55.776;37.496;2024-03-07T15:30:22;4.03;;;1.30;;